Seaexpressii — HO4619 — position and weather

sailwx.info

Track history (hours):
 
Tides and Currents Weather Stations Pressure Air Temp Water Temp Dewpoint Dewpoint Depression Visibility Wind Speed Wind Dir Waves Ship Positions

Seaexpressii

Last reported at 2014-Dec-18 03:20 UTC. Time now 2014-Dec-19 08:42 UTC.
Position N 25°58' W 079°38'.

Length 37 m; draft 2 m.

Type: Ship. MMSI: 356449000.

Date/timePositionNaut miles runAvg speedWind from/ knotsBaromVisibWave heightAir tempDewpointWater temp
2014-Dec-18 03:20N 25°58' W 079°38'7 9.3
2014-Dec-18 02:33N 26°00' W 079°46'9 9.4
2014-Dec-18 01:33N 26°03' W 079°56'9 9.3
2014-Dec-18 00:33N 26°06' W 080°06'3 2.8
2014-Dec-17 23:33N 26°04' W 080°08'0 0.0
2014-Dec-17 22:33N 26°04' W 080°08'0 0.0
2014-Dec-17 21:33N 26°04' W 080°08'0 0.0
2014-Dec-17 20:33N 26°04' W 080°08'0 0.0
2014-Dec-17 19:33N 26°04' W 080°08'0 0.0
2014-Dec-17 18:33N 26°04' W 080°08'0 0.0
2014-Dec-17 17:33N 26°04' W 080°08'0 0.0
2014-Dec-17 16:33N 26°04' W 080°08'2 2.4
2014-Dec-17 15:33N 26°06' W 080°06'1010.1
2014-Dec-17 14:33N 26°03' W 079°55'1010.3
2014-Dec-17 13:33N 25°60' W 079°45'1010.2
2014-Dec-17 12:33N 25°57' W 079°34'  
2014-Dec-14 07:04N 25°59' W 079°40'4 8.6
2014-Dec-14 06:34N 25°60' W 079°45'9 9.1
2014-Dec-14 05:34N 26°03' W 079°55'10 9.6
2014-Dec-14 04:34N 26°05' W 080°05'3 3.1
2014-Dec-14 03:34N 26°04' W 080°08'0 0.0
2014-Dec-14 02:34N 26°04' W 080°08'0 0.0
2014-Dec-14 01:33N 26°04' W 080°08'0 0.0
2014-Dec-14 00:33N 26°04' W 080°08'0 0.0
2014-Dec-13 23:33N 26°04' W 080°08'0 0.0
2014-Dec-13 22:33N 26°04' W 080°08'0 0.0
2014-Dec-13 21:33N 26°04' W 080°08'0 0.0
2014-Dec-13 20:33N 26°04' W 080°08'0 0.0
2014-Dec-13 19:33N 26°04' W 080°08'0 0.0
2014-Dec-13 18:34N 26°04' W 080°08'0 0.0
2014-Dec-13 17:34N 26°04' W 080°08'0 0.0
2014-Dec-13 16:33N 26°04' W 080°08'1 0.9
2014-Dec-13 15:34N 26°04' W 080°07'5 5.4
2014-Dec-13 14:34N 26°04' W 080°01'1010.4
2014-Dec-13 13:34N 26°01' W 079°50'1111.2
2014-Dec-13 12:33N 25°58' W 079°38'29 0.8
2014-Dec-11 22:30N 26°27' W 079°39'1111.1
2014-Dec-11 21:33N 26°19' W 079°47'1110.6
2014-Dec-11 20:34N 26°12' W 079°56'1110.5
2014-Dec-11 19:34N 26°06' W 080°05'3 3.0
2014-Dec-11 18:34N 26°04' W 080°08'0 0.0
2014-Dec-11 17:33N 26°04' W 080°08'0 0.0
2014-Dec-11 16:33N 26°04' W 080°08'0 0.0
2014-Dec-11 15:33N 26°04' W 080°08'0 0.0
2014-Dec-11 14:33N 26°04' W 080°08'0 0.0
2014-Dec-11 13:33N 26°04' W 080°08'0 0.0
2014-Dec-11 12:33N 26°04' W 080°08'0 0.2
2014-Dec-11 11:33N 26°04' W 080°08'5 5.4
2014-Dec-11 10:34N 26°06' W 080°02'8 7.7
2014-Dec-11 09:34N 26°08' W 079°54'7 7.1
2014-Dec-11 08:34N 26°11' W 079°47'7 7.1
2014-Dec-11 07:33N 26°14' W 079°39'7 0.5
2014-Dec-10 18:33N 26°13' W 079°32'9 8.7
2014-Dec-10 17:34N 26°08' W 079°40'8 7.8
2014-Dec-10 16:33N 26°06' W 079°49'8 8.4
2014-Dec-10 15:33N 26°08' W 079°58'8 8.4
2014-Dec-10 14:34N 26°05' W 080°07'2 1.8
2014-Dec-10 13:33N 26°04' W 080°08'0 0.0
2014-Dec-10 12:33N 26°04' W 080°08'0 0.0
2014-Dec-10 11:33N 26°04' W 080°08'0 0.0
2014-Dec-10 10:33N 26°04' W 080°08'0 0.0
2014-Dec-10 09:33N 26°04' W 080°08'0 0.0
2014-Dec-10 08:33N 26°04' W 080°08'0 0.0
2014-Dec-10 07:33N 26°04' W 080°08'0 0.0
2014-Dec-10 06:33N 26°04' W 080°08'0 0.0
2014-Dec-10 05:34N 26°04' W 080°08'0 0.0
2014-Dec-10 04:33N 26°04' W 080°08'0 0.0
2014-Dec-10 03:34N 26°04' W 080°08'2 1.7
2014-Dec-10 02:34N 26°05' W 080°07'9 9.2
2014-Dec-10 01:34N 26°11' W 079°59'8 8.5
2014-Dec-10 00:34N 26°16' W 079°52'8 7.8
2014-Dec-09 23:33N 26°22' W 079°45'8 7.9
2014-Dec-09 22:33N 26°27' W 079°39'8 0.2
2014-Dec-08 09:10N 26°32' W 079°33'6 9.5
2014-Dec-08 08:33N 26°28' W 079°37'9 9.4
2014-Dec-08 07:34N 26°22' W 079°45'9 9.2
2014-Dec-08 06:34N 26°16' W 079°53'9 9.4
2014-Dec-08 05:33N 26°09' W 080°01'8 8.2
2014-Dec-08 04:33N 26°04' W 080°07'1 0.6
2014-Dec-08 03:33N 26°04' W 080°08'  
Track history (hours):
 
Tides and Currents Weather Stations Pressure Air Temp Water Temp Dewpoint Dewpoint Depression Visibility Wind Speed Wind Dir Waves Ship Positions

Seaexpressii

Last reported at 2014-Dec-18 03:20 UTC. Time now 2014-Dec-19 08:42 UTC.
Position N 25°58' W 079°38'.

Length 37 m; draft 2 m.

Type: Ship. MMSI: 356449000.

Date/timePositionNaut miles runAvg speedWind from/ knotsBaromVisibWave heightAir tempDewpointWater temp
2014-Dec-18 03:20N 25°58' W 079°38'7 9.3
2014-Dec-18 02:33N 26°00' W 079°46'9 9.4
2014-Dec-18 01:33N 26°03' W 079°56'9 9.3
2014-Dec-18 00:33N 26°06' W 080°06'3 2.8
2014-Dec-17 23:33N 26°04' W 080°08'0 0.0
2014-Dec-17 22:33N 26°04' W 080°08'0 0.0
2014-Dec-17 21:33N 26°04' W 080°08'0 0.0
2014-Dec-17 20:33N 26°04' W 080°08'0 0.0
2014-Dec-17 19:33N 26°04' W 080°08'0 0.0
2014-Dec-17 18:33N 26°04' W 080°08'0 0.0
2014-Dec-17 17:33N 26°04' W 080°08'0 0.0
2014-Dec-17 16:33N 26°04' W 080°08'2 2.4
2014-Dec-17 15:33N 26°06' W 080°06'1010.1
2014-Dec-17 14:33N 26°03' W 079°55'1010.3
2014-Dec-17 13:33N 25°60' W 079°45'1010.2
2014-Dec-17 12:33N 25°57' W 079°34'  
2014-Dec-14 07:04N 25°59' W 079°40'4 8.6
2014-Dec-14 06:34N 25°60' W 079°45'9 9.1
2014-Dec-14 05:34N 26°03' W 079°55'10 9.6
2014-Dec-14 04:34N 26°05' W 080°05'3 3.1
2014-Dec-14 03:34N 26°04' W 080°08'0 0.0
2014-Dec-14 02:34N 26°04' W 080°08'0 0.0
2014-Dec-14 01:33N 26°04' W 080°08'0 0.0
2014-Dec-14 00:33N 26°04' W 080°08'0 0.0
2014-Dec-13 23:33N 26°04' W 080°08'0 0.0
2014-Dec-13 22:33N 26°04' W 080°08'0 0.0
2014-Dec-13 21:33N 26°04' W 080°08'0 0.0
2014-Dec-13 20:33N 26°04' W 080°08'0 0.0
2014-Dec-13 19:33N 26°04' W 080°08'0 0.0
2014-Dec-13 18:34N 26°04' W 080°08'0 0.0
2014-Dec-13 17:34N 26°04' W 080°08'0 0.0
2014-Dec-13 16:33N 26°04' W 080°08'1 0.9
2014-Dec-13 15:34N 26°04' W 080°07'5 5.4
2014-Dec-13 14:34N 26°04' W 080°01'1010.4
2014-Dec-13 13:34N 26°01' W 079°50'1111.2
2014-Dec-13 12:33N 25°58' W 079°38'29 0.8
2014-Dec-11 22:30N 26°27' W 079°39'1111.1
2014-Dec-11 21:33N 26°19' W 079°47'1110.6
2014-Dec-11 20:34N 26°12' W 079°56'1110.5
2014-Dec-11 19:34N 26°06' W 080°05'3 3.0
2014-Dec-11 18:34N 26°04' W 080°08'0 0.0
2014-Dec-11 17:33N 26°04' W 080°08'0 0.0
2014-Dec-11 16:33N 26°04' W 080°08'0 0.0
2014-Dec-11 15:33N 26°04' W 080°08'0 0.0
2014-Dec-11 14:33N 26°04' W 080°08'0 0.0
2014-Dec-11 13:33N 26°04' W 080°08'0 0.0
2014-Dec-11 12:33N 26°04' W 080°08'0 0.2
2014-Dec-11 11:33N 26°04' W 080°08'5 5.4
2014-Dec-11 10:34N 26°06' W 080°02'8 7.7
2014-Dec-11 09:34N 26°08' W 079°54'7 7.1
2014-Dec-11 08:34N 26°11' W 079°47'7 7.1
2014-Dec-11 07:33N 26°14' W 079°39'7 0.5
2014-Dec-10 18:33N 26°13' W 079°32'9 8.7
2014-Dec-10 17:34N 26°08' W 079°40'8 7.8
2014-Dec-10 16:33N 26°06' W 079°49'8 8.4
2014-Dec-10 15:33N 26°08' W 079°58'8 8.4
2014-Dec-10 14:34N 26°05' W 080°07'2 1.8
2014-Dec-10 13:33N 26°04' W 080°08'0 0.0
2014-Dec-10 12:33N 26°04' W 080°08'0 0.0
2014-Dec-10 11:33N 26°04' W 080°08'0 0.0
2014-Dec-10 10:33N 26°04' W 080°08'0 0.0
2014-Dec-10 09:33N 26°04' W 080°08'0 0.0
2014-Dec-10 08:33N 26°04' W 080°08'0 0.0
2014-Dec-10 07:33N 26°04' W 080°08'0 0.0
2014-Dec-10 06:33N 26°04' W 080°08'0 0.0
2014-Dec-10 05:34N 26°04' W 080°08'0 0.0
2014-Dec-10 04:33N 26°04' W 080°08'0 0.0
2014-Dec-10 03:34N 26°04' W 080°08'2 1.7
2014-Dec-10 02:34N 26°05' W 080°07'9 9.2
2014-Dec-10 01:34N 26°11' W 079°59'8 8.5
2014-Dec-10 00:34N 26°16' W 079°52'8 7.8
2014-Dec-09 23:33N 26°22' W 079°45'8 7.9
2014-Dec-09 22:33N 26°27' W 079°39'8 0.2
2014-Dec-08 09:10N 26°32' W 079°33'6 9.5
2014-Dec-08 08:33N 26°28' W 079°37'9 9.4
2014-Dec-08 07:34N 26°22' W 079°45'9 9.2
2014-Dec-08 06:34N 26°16' W 079°53'9 9.4
2014-Dec-08 05:33N 26°09' W 080°01'8 8.2
2014-Dec-08 04:33N 26°04' W 080°07'1 0.6
2014-Dec-08 03:33N 26°04' W 080°08'  

Dump ship's entire track history